sensor_id;sensor_type;location;lat;lon;timestamp;temperature;humidity
33831;DHT22;20137;48.834;8.732;2023-10-09T00:02:11;16.60;99.40
33831;DHT22;20137;48.834;8.732;2023-10-09T00:04:46;16.70;99.10
33831;DHT22;20137;48.834;8.732;2023-10-09T00:07:12;16.80;98.90
33831;DHT22;20137;48.834;8.732;2023-10-09T00:09:41;16.90;98.60
33831;DHT22;20137;48.834;8.732;2023-10-09T00:12:17;16.90;98.60
33831;DHT22;20137;48.834;8.732;2023-10-09T00:14:48;16.80;98.70
33831;DHT22;20137;48.834;8.732;2023-10-09T00:17:19;16.80;98.80
33831;DHT22;20137;48.834;8.732;2023-10-09T00:19:46;16.80;98.60
33831;DHT22;20137;48.834;8.732;2023-10-09T00:22:15;16.80;98.60
33831;DHT22;20137;48.834;8.732;2023-10-09T00:24:49;16.80;98.60
33831;DHT22;20137;48.834;8.732;2023-10-09T00:27:16;16.70;98.70
33831;DHT22;20137;48.834;8.732;2023-10-09T00:29:46;16.60;98.90
33831;DHT22;20137;48.834;8.732;2023-10-09T00:32:14;16.50;99.10
33831;DHT22;20137;48.834;8.732;2023-10-09T00:34:49;16.40;99.10
33831;DHT22;20137;48.834;8.732;2023-10-09T00:37:16;16.30;99.80
33831;DHT22;20137;48.834;8.732;2023-10-09T00:39:45;16.20;99.80
33831;DHT22;20137;48.834;8.732;2023-10-09T00:42:14;16.10;99.90
33831;DHT22;20137;48.834;8.732;2023-10-09T00:44:51;16.10;99.90
33831;DHT22;20137;48.834;8.732;2023-10-09T00:47:17;16.00;99.90
33831;DHT22;20137;48.834;8.732;2023-10-09T00:49:51;16.10;99.90
33831;DHT22;20137;48.834;8.732;2023-10-09T00:52:28;16.10;99.60
33831;DHT22;20137;48.834;8.732;2023-10-09T00:55:05;16.20;99.40
33831;DHT22;20137;48.834;8.732;2023-10-09T00:57:44;16.30;99.00
33831;DHT22;20137;48.834;8.732;2023-10-09T01:00:17;16.50;98.90
33831;DHT22;20137;48.834;8.732;2023-10-09T01:03:04;16.60;98.70
33831;DHT22;20137;48.834;8.732;2023-10-09T01:05:57;16.70;98.30
33831;DHT22;20137;48.834;8.732;2023-10-09T01:08:39;16.80;98.10
33831;DHT22;20137;48.834;8.732;2023-10-09T01:11:06;16.80;98.00
33831;DHT22;20137;48.834;8.732;2023-10-09T01:13:36;16.70;98.00
33831;DHT22;20137;48.834;8.732;2023-10-09T01:16:23;16.70;98.20
33831;DHT22;20137;48.834;8.732;2023-10-09T01:18:49;16.60;98.20
33831;DHT22;20137;48.834;8.732;2023-10-09T01:21:20;16.60;98.30
33831;DHT22;20137;48.834;8.732;2023-10-09T01:23:53;16.70;98.10
33831;DHT22;20137;48.834;8.732;2023-10-09T01:26:32;16.60;98.10
33831;DHT22;20137;48.834;8.732;2023-10-09T01:29:03;16.60;98.00
33831;DHT22;20137;48.834;8.732;2023-10-09T01:31:29;16.70;97.90
33831;DHT22;20137;48.834;8.732;2023-10-09T01:33:59;16.70;97.90
33831;DHT22;20137;48.834;8.732;2023-10-09T01:36:28;16.80;97.70
33831;DHT22;20137;48.834;8.732;2023-10-09T01:39:02;16.80;97.70
33831;DHT22;20137;48.834;8.732;2023-10-09T01:41:48;16.90;97.60
33831;DHT22;20137;48.834;8.732;2023-10-09T01:44:17;16.80;98.10
33831;DHT22;20137;48.834;8.732;2023-10-09T01:46:44;16.70;98.20
33831;DHT22;20137;48.834;8.732;2023-10-09T01:49:12;16.50;98.10
33831;DHT22;20137;48.834;8.732;2023-10-09T01:51:42;16.50;98.30
33831;DHT22;20137;48.834;8.732;2023-10-09T01:54:08;16.50;98.30
33831;DHT22;20137;48.834;8.732;2023-10-09T01:56:41;16.50;98.10
33831;DHT22;20137;48.834;8.732;2023-10-09T01:59:11;16.60;98.20
33831;DHT22;20137;48.834;8.732;2023-10-09T02:01:37;16.60;98.20
33831;DHT22;20137;48.834;8.732;2023-10-09T02:04:06;16.60;98.00
33831;DHT22;20137;48.834;8.732;2023-10-09T02:06:39;16.70;98.00
33831;DHT22;20137;48.834;8.732;2023-10-09T02:09:05;16.80;98.00
33831;DHT22;20137;48.834;8.732;2023-10-09T02:11:32;16.80;97.80
33831;DHT22;20137;48.834;8.732;2023-10-09T02:14:04;16.90;97.70
33831;DHT22;20137;48.834;8.732;2023-10-09T02:16:48;17.00;97.50
33831;DHT22;20137;48.834;8.732;2023-10-09T02:19:43;17.10;97.50
33831;DHT22;20137;48.834;8.732;2023-10-09T02:22:14;17.10;97.20
33831;DHT22;20137;48.834;8.732;2023-10-09T02:24:44;17.30;97.20
33831;DHT22;20137;48.834;8.732;2023-10-09T02:27:25;17.30;97.00
33831;DHT22;20137;48.834;8.732;2023-10-09T02:30:12;17.50;96.80
33831;DHT22;20137;48.834;8.732;2023-10-09T02:32:44;17.60;96.50
33831;DHT22;20137;48.834;8.732;2023-10-09T02:35:13;17.70;96.40
33831;DHT22;20137;48.834;8.732;2023-10-09T02:37:58;17.70;96.70
33831;DHT22;20137;48.834;8.732;2023-10-09T02:40:27;17.90;96.30
33831;DHT22;20137;48.834;8.732;2023-10-09T02:42:58;17.90;96.10
33831;DHT22;20137;48.834;8.732;2023-10-09T02:45:24;18.00;95.80
33831;DHT22;20137;48.834;8.732;2023-10-09T02:47:50;18.10;96.00
33831;DHT22;20137;48.834;8.732;2023-10-09T02:50:17;18.20;96.00
33831;DHT22;20137;48.834;8.732;2023-10-09T02:52:49;18.20;95.80
33831;DHT22;20137;48.834;8.732;2023-10-09T02:55:24;18.10;95.90
33831;DHT22;20137;48.834;8.732;2023-10-09T02:57:53;18.00;96.00
33831;DHT22;20137;48.834;8.732;2023-10-09T03:00:31;18.10;95.90
33831;DHT22;20137;48.834;8.732;2023-10-09T03:02:58;18.20;96.00
33831;DHT22;20137;48.834;8.732;2023-10-09T03:05:27;18.20;95.70
33831;DHT22;20137;48.834;8.732;2023-10-09T03:07:54;18.20;95.60
33831;DHT22;20137;48.834;8.732;2023-10-09T03:10:22;18.30;95.40
33831;DHT22;20137;48.834;8.732;2023-10-09T03:12:48;18.30;95.50
33831;DHT22;20137;48.834;8.732;2023-10-09T03:15:21;18.40;95.30
33831;DHT22;20137;48.834;8.732;2023-10-09T03:17:47;18.40;95.30
33831;DHT22;20137;48.834;8.732;2023-10-09T03:20:16;18.50;95.00
33831;DHT22;20137;48.834;8.732;2023-10-09T03:22:44;18.50;95.10
33831;DHT22;20137;48.834;8.732;2023-10-09T03:25:13;18.60;95.20
33831;DHT22;20137;48.834;8.732;2023-10-09T03:27:43;18.60;94.80
33831;DHT22;20137;48.834;8.732;2023-10-09T03:30:13;18.70;94.90
33831;DHT22;20137;48.834;8.732;2023-10-09T03:32:45;18.70;94.70
33831;DHT22;20137;48.834;8.732;2023-10-09T03:35:19;18.70;94.90
33831;DHT22;20137;48.834;8.732;2023-10-09T03:37:55;18.90;94.60
33831;DHT22;20137;48.834;8.732;2023-10-09T03:40:23;19.10;94.20
33831;DHT22;20137;48.834;8.732;2023-10-09T03:42:49;19.10;94.20
33831;DHT22;20137;48.834;8.732;2023-10-09T03:45:15;19.10;94.20
33831;DHT22;20137;48.834;8.732;2023-10-09T03:48:00;19.20;94.20
33831;DHT22;20137;48.834;8.732;2023-10-09T03:50:29;19.10;94.30
33831;DHT22;20137;48.834;8.732;2023-10-09T03:53:02;19.10;94.30
33831;DHT22;20137;48.834;8.732;2023-10-09T03:55:29;19.00;94.20
33831;DHT22;20137;48.834;8.732;2023-10-09T03:57:56;19.00;94.40
33831;DHT22;20137;48.834;8.732;2023-10-09T04:00:23;18.90;94.40
33831;DHT22;20137;48.834;8.732;2023-10-09T04:02:54;18.90;94.60
33831;DHT22;20137;48.834;8.732;2023-10-09T04:05:19;18.90;94.70
33831;DHT22;20137;48.834;8.732;2023-10-09T04:07:45;18.90;94.50
33831;DHT22;20137;48.834;8.732;2023-10-09T04:10:11;19.00;94.50
33831;DHT22;20137;48.834;8.732;2023-10-09T04:12:55;18.90;94.70
33831;DHT22;20137;48.834;8.732;2023-10-09T04:15:24;18.90;94.60
33831;DHT22;20137;48.834;8.732;2023-10-09T04:17:49;18.80;94.90
33831;DHT22;20137;48.834;8.732;2023-10-09T04:20:17;18.70;94.90
33831;DHT22;20137;48.834;8.732;2023-10-09T04:22:43;18.80;95.10
33831;DHT22;20137;48.834;8.732;2023-10-09T04:25:25;18.80;94.90
33831;DHT22;20137;48.834;8.732;2023-10-09T04:27:55;18.80;95.00
33831;DHT22;20137;48.834;8.732;2023-10-09T04:30:39;18.70;95.30
33831;DHT22;20137;48.834;8.732;2023-10-09T04:33:06;18.50;95.60
33831;DHT22;20137;48.834;8.732;2023-10-09T04:35:50;18.20;95.90
33831;DHT22;20137;48.834;8.732;2023-10-09T04:38:36;18.00;96.10
33831;DHT22;20137;48.834;8.732;2023-10-09T04:41:05;18.00;96.30
33831;DHT22;20137;48.834;8.732;2023-10-09T04:43:31;17.90;96.70
33831;DHT22;20137;48.834;8.732;2023-10-09T04:45:58;17.90;96.40
33831;DHT22;20137;48.834;8.732;2023-10-09T04:48:37;18.00;96.50
33831;DHT22;20137;48.834;8.732;2023-10-09T04:51:11;18.10;96.50
33831;DHT22;20137;48.834;8.732;2023-10-09T04:53:55;18.10;96.40
33831;DHT22;20137;48.834;8.732;2023-10-09T04:56:39;18.10;96.50
33831;DHT22;20137;48.834;8.732;2023-10-09T04:59:18;18.10;96.40
33831;DHT22;20137;48.834;8.732;2023-10-09T05:01:44;18.20;96.30
33831;DHT22;20137;48.834;8.732;2023-10-09T05:04:12;18.20;96.40
33831;DHT22;20137;48.834;8.732;2023-10-09T05:06:56;18.20;96.40
33831;DHT22;20137;48.834;8.732;2023-10-09T05:09:22;18.10;96.40
33831;DHT22;20137;48.834;8.732;2023-10-09T05:11:49;18.20;96.50
33831;DHT22;20137;48.834;8.732;2023-10-09T05:14:17;18.10;96.60
33831;DHT22;20137;48.834;8.732;2023-10-09T05:16:52;18.10;96.70
33831;DHT22;20137;48.834;8.732;2023-10-09T05:19:23;18.00;96.90
33831;DHT22;20137;48.834;8.732;2023-10-09T05:21:59;18.00;96.80
33831;DHT22;20137;48.834;8.732;2023-10-09T05:24:35;18.00;96.80
33831;DHT22;20137;48.834;8.732;2023-10-09T05:27:12;18.00;97.10
33831;DHT22;20137;48.834;8.732;2023-10-09T05:29:44;18.00;97.20
33831;DHT22;20137;48.834;8.732;2023-10-09T05:32:25;18.00;97.10
33831;DHT22;20137;48.834;8.732;2023-10-09T05:35:00;18.00;97.20
33831;DHT22;20137;48.834;8.732;2023-10-09T05:37:30;18.00;97.30
33831;DHT22;20137;48.834;8.732;2023-10-09T05:40:03;18.00;97.50
33831;DHT22;20137;48.834;8.732;2023-10-09T05:42:36;18.10;97.40
33831;DHT22;20137;48.834;8.732;2023-10-09T05:45:12;18.10;97.40
33831;DHT22;20137;48.834;8.732;2023-10-09T05:47:57;18.10;97.70
33831;DHT22;20137;48.834;8.732;2023-10-09T05:50:26;18.20;97.50
33831;DHT22;20137;48.834;8.732;2023-10-09T05:52:54;18.20;97.50
33831;DHT22;20137;48.834;8.732;2023-10-09T05:55:21;18.30;97.40
33831;DHT22;20137;48.834;8.732;2023-10-09T05:57:53;18.30;97.60
33831;DHT22;20137;48.834;8.732;2023-10-09T06:00:25;18.40;97.50
33831;DHT22;20137;48.834;8.732;2023-10-09T06:03:10;18.40;97.60
33831;DHT22;20137;48.834;8.732;2023-10-09T06:05:52;18.50;97.70
33831;DHT22;20137;48.834;8.732;2023-10-09T06:08:19;18.60;97.70
33831;DHT22;20137;48.834;8.732;2023-10-09T06:10:51;18.60;97.70
33831;DHT22;20137;48.834;8.732;2023-10-09T06:13:34;18.70;97.70
33831;DHT22;20137;48.834;8.732;2023-10-09T06:16:04;18.80;97.70
33831;DHT22;20137;48.834;8.732;2023-10-09T06:18:55;18.80;97.70
33831;DHT22;20137;48.834;8.732;2023-10-09T06:21:34;19.00;97.40
33831;DHT22;20137;48.834;8.732;2023-10-09T06:24:22;19.00;97.50
33831;DHT22;20137;48.834;8.732;2023-10-09T06:27:06;19.00;97.30
33831;DHT22;20137;48.834;8.732;2023-10-09T06:29:32;19.00;97.10
33831;DHT22;20137;48.834;8.732;2023-10-09T06:32:12;19.10;97.10
33831;DHT22;20137;48.834;8.732;2023-10-09T06:34:45;19.20;97.00
33831;DHT22;20137;48.834;8.732;2023-10-09T06:37:15;19.20;96.60
33831;DHT22;20137;48.834;8.732;2023-10-09T06:39:44;19.20;96.80
33831;DHT22;20137;48.834;8.732;2023-10-09T06:42:16;19.20;96.40
33831;DHT22;20137;48.834;8.732;2023-10-09T06:45:10;19.30;96.50
33831;DHT22;20137;48.834;8.732;2023-10-09T06:47:39;19.30;96.40
33831;DHT22;20137;48.834;8.732;2023-10-09T06:50:19;19.30;96.30
33831;DHT22;20137;48.834;8.732;2023-10-09T06:52:51;19.40;96.30
33831;DHT22;20137;48.834;8.732;2023-10-09T06:55:26;19.30;96.10
33831;DHT22;20137;48.834;8.732;2023-10-09T06:58:00;19.40;96.00
33831;DHT22;20137;48.834;8.732;2023-10-09T07:00:44;19.40;96.00
33831;DHT22;20137;48.834;8.732;2023-10-09T07:03:28;19.50;95.70
33831;DHT22;20137;48.834;8.732;2023-10-09T07:06:09;19.50;95.70
33831;DHT22;20137;48.834;8.732;2023-10-09T07:08:55;19.50;95.80
33831;DHT22;20137;48.834;8.732;2023-10-09T07:11:41;19.60;95.60
33831;DHT22;20137;48.834;8.732;2023-10-09T07:14:21;19.60;95.80
33831;DHT22;20137;48.834;8.732;2023-10-09T07:16:59;19.60;95.70
33831;DHT22;20137;48.834;8.732;2023-10-09T07:19:30;19.60;95.20
33831;DHT22;20137;48.834;8.732;2023-10-09T07:22:05;19.60;95.60
33831;DHT22;20137;48.834;8.732;2023-10-09T07:24:42;19.60;95.40
33831;DHT22;20137;48.834;8.732;2023-10-09T07:27:19;19.60;95.60
33831;DHT22;20137;48.834;8.732;2023-10-09T07:30:06;19.60;95.50
33831;DHT22;20137;48.834;8.732;2023-10-09T07:32:59;19.60;95.30
33831;DHT22;20137;48.834;8.732;2023-10-09T07:35:35;19.70;95.20
33831;DHT22;20137;48.834;8.732;2023-10-09T07:40:36;19.70;95.00
33831;DHT22;20137;48.834;8.732;2023-10-09T07:43:21;19.80;95.40
33831;DHT22;20137;48.834;8.732;2023-10-09T07:45:52;19.90;94.90
33831;DHT22;20137;48.834;8.732;2023-10-09T07:48:26;19.90;94.80
33831;DHT22;20137;48.834;8.732;2023-10-09T07:50:52;20.00;94.80
33831;DHT22;20137;48.834;8.732;2023-10-09T07:53:26;20.00;94.80
33831;DHT22;20137;48.834;8.732;2023-10-09T07:55:52;20.00;94.50
33831;DHT22;20137;48.834;8.732;2023-10-09T07:58:22;20.10;94.80
33831;DHT22;20137;48.834;8.732;2023-10-09T08:00:55;20.10;94.50
33831;DHT22;20137;48.834;8.732;2023-10-09T08:03:24;20.10;94.80
33831;DHT22;20137;48.834;8.732;2023-10-09T08:05:51;20.20;94.60
33831;DHT22;20137;48.834;8.732;2023-10-09T08:08:18;20.20;94.40
33831;DHT22;20137;48.834;8.732;2023-10-09T08:10:53;20.30;94.50
33831;DHT22;20137;48.834;8.732;2023-10-09T08:13:37;20.30;94.70
33831;DHT22;20137;48.834;8.732;2023-10-09T08:16:26;20.20;95.20
33831;DHT22;20137;48.834;8.732;2023-10-09T08:19:03;20.30;95.00
33831;DHT22;20137;48.834;8.732;2023-10-09T08:21:47;20.30;95.30
33831;DHT22;20137;48.834;8.732;2023-10-09T08:24:33;20.20;95.20
33831;DHT22;20137;48.834;8.732;2023-10-09T08:27:07;20.30;95.40
33831;DHT22;20137;48.834;8.732;2023-10-09T08:29:51;20.20;95.40
33831;DHT22;20137;48.834;8.732;2023-10-09T08:32:36;20.20;95.80
33831;DHT22;20137;48.834;8.732;2023-10-09T08:35:07;20.20;95.50
33831;DHT22;20137;48.834;8.732;2023-10-09T08:37:45;20.20;95.40
33831;DHT22;20137;48.834;8.732;2023-10-09T08:40:16;20.20;95.50
33831;DHT22;20137;48.834;8.732;2023-10-09T08:42:53;20.20;95.80
33831;DHT22;20137;48.834;8.732;2023-10-09T08:45:22;20.20;95.80
33831;DHT22;20137;48.834;8.732;2023-10-09T08:47:56;20.20;96.00
33831;DHT22;20137;48.834;8.732;2023-10-09T08:50:22;20.20;95.90
33831;DHT22;20137;48.834;8.732;2023-10-09T08:52:54;20.20;95.50
33831;DHT22;20137;48.834;8.732;2023-10-09T08:55:20;20.30;95.60
33831;DHT22;20137;48.834;8.732;2023-10-09T08:57:46;20.30;95.90
33831;DHT22;20137;48.834;8.732;2023-10-09T09:00:19;20.30;95.70
33831;DHT22;20137;48.834;8.732;2023-10-09T09:02:55;20.40;95.80
33831;DHT22;20137;48.834;8.732;2023-10-09T09:05:21;20.40;95.60
33831;DHT22;20137;48.834;8.732;2023-10-09T09:07:47;20.40;95.50
33831;DHT22;20137;48.834;8.732;2023-10-09T09:10:13;20.50;95.60
33831;DHT22;20137;48.834;8.732;2023-10-09T09:12:49;20.50;95.80
33831;DHT22;20137;48.834;8.732;2023-10-09T09:15:19;20.50;95.90
33831;DHT22;20137;48.834;8.732;2023-10-09T09:17:46;20.50;96.00
33831;DHT22;20137;48.834;8.732;2023-10-09T09:20:23;20.60;96.10
33831;DHT22;20137;48.834;8.732;2023-10-09T09:22:53;20.60;96.10
33831;DHT22;20137;48.834;8.732;2023-10-09T09:25:23;20.70;96.30
33831;DHT22;20137;48.834;8.732;2023-10-09T09:27:56;20.70;96.30
33831;DHT22;20137;48.834;8.732;2023-10-09T09:30:26;20.70;96.20
33831;DHT22;20137;48.834;8.732;2023-10-09T09:33:00;20.80;96.10
33831;DHT22;20137;48.834;8.732;2023-10-09T09:35:59;20.70;96.40
33831;DHT22;20137;48.834;8.732;2023-10-09T09:38:27;20.80;96.40
33831;DHT22;20137;48.834;8.732;2023-10-09T09:40:57;20.90;96.70
33831;DHT22;20137;48.834;8.732;2023-10-09T09:43:29;20.90;96.70
33831;DHT22;20137;48.834;8.732;2023-10-09T09:45:56;20.90;97.00
33831;DHT22;20137;48.834;8.732;2023-10-09T09:48:22;21.00;96.60
33831;DHT22;20137;48.834;8.732;2023-10-09T09:50:49;21.10;97.10
33831;DHT22;20137;48.834;8.732;2023-10-09T09:53:19;21.10;96.60
33831;DHT22;20137;48.834;8.732;2023-10-09T09:55:53;21.10;96.70
33831;DHT22;20137;48.834;8.732;2023-10-09T09:58:23;21.00;96.60
33831;DHT22;20137;48.834;8.732;2023-10-09T10:00:51;21.10;96.70
33831;DHT22;20137;48.834;8.732;2023-10-09T10:03:24;21.20;96.70
33831;DHT22;20137;48.834;8.732;2023-10-09T10:05:52;21.20;96.50
33831;DHT22;20137;48.834;8.732;2023-10-09T10:08:21;21.30;96.40
33831;DHT22;20137;48.834;8.732;2023-10-09T10:10:56;21.20;96.60
33831;DHT22;20137;48.834;8.732;2023-10-09T10:16:11;21.30;94.80
33831;DHT22;20137;48.834;8.732;2023-10-09T10:21:26;21.50;94.90
33831;DHT22;20137;48.834;8.732;2023-10-09T10:24:00;21.40;94.70
33831;DHT22;20137;48.834;8.732;2023-10-09T10:26:35;21.40;95.20
33831;DHT22;20137;48.834;8.732;2023-10-09T10:29:20;21.40;94.20
33831;DHT22;20137;48.834;8.732;2023-10-09T10:32:00;21.40;95.00
33831;DHT22;20137;48.834;8.732;2023-10-09T10:34:54;21.40;94.90
33831;DHT22;20137;48.834;8.732;2023-10-09T10:37:38;21.40;95.40
33831;DHT22;20137;48.834;8.732;2023-10-09T10:40:26;21.40;95.10
33831;DHT22;20137;48.834;8.732;2023-10-09T10:43:16;21.50;94.50
33831;DHT22;20137;48.834;8.732;2023-10-09T10:46:13;21.50;94.00
33831;DHT22;20137;48.834;8.732;2023-10-09T10:49:09;21.50;94.40
33831;DHT22;20137;48.834;8.732;2023-10-09T10:51:38;21.50;93.90
33831;DHT22;20137;48.834;8.732;2023-10-09T10:54:04;21.50;92.90
33831;DHT22;20137;48.834;8.732;2023-10-09T10:56:49;21.70;91.80
33831;DHT22;20137;48.834;8.732;2023-10-09T10:59:15;21.80;92.70
33831;DHT22;20137;48.834;8.732;2023-10-09T11:01:49;21.90;92.30
33831;DHT22;20137;48.834;8.732;2023-10-09T11:04:27;21.90;92.20
33831;DHT22;20137;48.834;8.732;2023-10-09T11:07:00;22.00;91.00
33831;DHT22;20137;48.834;8.732;2023-10-09T11:09:52;21.90;91.50
33831;DHT22;20137;48.834;8.732;2023-10-09T11:15:08;21.90;90.70
33831;DHT22;20137;48.834;8.732;2023-10-09T11:17:44;21.90;90.20
33831;DHT22;20137;48.834;8.732;2023-10-09T11:20:12;21.80;91.00
33831;DHT22;20137;48.834;8.732;2023-10-09T11:22:52;21.80;91.50
33831;DHT22;20137;48.834;8.732;2023-10-09T11:25:37;21.80;91.70
33831;DHT22;20137;48.834;8.732;2023-10-09T11:28:20;21.90;91.40
33831;DHT22;20137;48.834;8.732;2023-10-09T11:31:09;21.90;90.70
33831;DHT22;20137;48.834;8.732;2023-10-09T11:36:21;21.80;90.60
33831;DHT22;20137;48.834;8.732;2023-10-09T11:38:57;21.90;90.70
33831;DHT22;20137;48.834;8.732;2023-10-09T11:41:42;21.80;89.20
33831;DHT22;20137;48.834;8.732;2023-10-09T11:44:08;21.80;87.90
33831;DHT22;20137;48.834;8.732;2023-10-09T11:46:59;21.80;88.80
33831;DHT22;20137;48.834;8.732;2023-10-09T11:49:56;21.80;86.90
33831;DHT22;20137;48.834;8.732;2023-10-09T11:52:29;21.90;87.40
33831;DHT22;20137;48.834;8.732;2023-10-09T11:55:05;21.90;87.70
33831;DHT22;20137;48.834;8.732;2023-10-09T11:57:33;22.00;87.20
33831;DHT22;20137;48.834;8.732;2023-10-09T12:00:05;22.00;87.10
33831;DHT22;20137;48.834;8.732;2023-10-09T12:03:00;22.10;86.80
33831;DHT22;20137;48.834;8.732;2023-10-09T12:05:32;22.20;86.70
33831;DHT22;20137;48.834;8.732;2023-10-09T12:07:59;22.20;86.70
33831;DHT22;20137;48.834;8.732;2023-10-09T12:10:27;22.30;86.70
33831;DHT22;20137;48.834;8.732;2023-10-09T12:12:53;22.40;86.20
33831;DHT22;20137;48.834;8.732;2023-10-09T12:15:19;22.60;84.40
33831;DHT22;20137;48.834;8.732;2023-10-09T12:17:46;22.70;84.70
33831;DHT22;20137;48.834;8.732;2023-10-09T12:20:16;22.80;83.90
33831;DHT22;20137;48.834;8.732;2023-10-09T12:23:02;22.90;84.30
33831;DHT22;20137;48.834;8.732;2023-10-09T12:25:34;23.00;84.40
33831;DHT22;20137;48.834;8.732;2023-10-09T12:28:01;23.00;83.70
33831;DHT22;20137;48.834;8.732;2023-10-09T12:30:31;23.00;83.60
33831;DHT22;20137;48.834;8.732;2023-10-09T12:33:03;23.00;80.30
33831;DHT22;20137;48.834;8.732;2023-10-09T12:35:29;22.90;79.80
33831;DHT22;20137;48.834;8.732;2023-10-09T12:37:59;22.90;80.20
33831;DHT22;20137;48.834;8.732;2023-10-09T12:40:26;22.90;81.30
33831;DHT22;20137;48.834;8.732;2023-10-09T12:42:55;22.80;80.20
33831;DHT22;20137;48.834;8.732;2023-10-09T12:45:21;22.80;81.00
33831;DHT22;20137;48.834;8.732;2023-10-09T12:47:59;22.80;82.40
33831;DHT22;20137;48.834;8.732;2023-10-09T12:50:28;22.70;80.50
33831;DHT22;20137;48.834;8.732;2023-10-09T12:52:57;22.60;80.40
33831;DHT22;20137;48.834;8.732;2023-10-09T12:55:37;22.50;81.70
33831;DHT22;20137;48.834;8.732;2023-10-09T12:58:06;22.60;81.30
33831;DHT22;20137;48.834;8.732;2023-10-09T13:00:36;22.60;80.40
33831;DHT22;20137;48.834;8.732;2023-10-09T13:03:14;22.60;80.80
33831;DHT22;20137;48.834;8.732;2023-10-09T13:05:49;22.50;80.10
33831;DHT22;20137;48.834;8.732;2023-10-09T13:08:22;22.50;79.70
33831;DHT22;20137;48.834;8.732;2023-10-09T13:10:53;22.50;80.30
33831;DHT22;20137;48.834;8.732;2023-10-09T13:13:29;22.60;81.60
33831;DHT22;20137;48.834;8.732;2023-10-09T13:16:09;22.70;81.30
33831;DHT22;20137;48.834;8.732;2023-10-09T13:18:39;22.90;82.00
33831;DHT22;20137;48.834;8.732;2023-10-09T13:21:04;22.90;81.70
33831;DHT22;20137;48.834;8.732;2023-10-09T13:23:31;22.70;80.60
33831;DHT22;20137;48.834;8.732;2023-10-09T13:26:05;22.70;80.50
33831;DHT22;20137;48.834;8.732;2023-10-09T13:28:46;22.70;79.60
33831;DHT22;20137;48.834;8.732;2023-10-09T13:31:16;22.60;78.50
33831;DHT22;20137;48.834;8.732;2023-10-09T13:33:43;22.50;75.50
33831;DHT22;20137;48.834;8.732;2023-10-09T13:36:12;22.40;75.40
33831;DHT22;20137;48.834;8.732;2023-10-09T13:38:45;22.60;75.60
33831;DHT22;20137;48.834;8.732;2023-10-09T13:41:11;22.60;74.80
33831;DHT22;20137;48.834;8.732;2023-10-09T13:43:43;22.70;77.00
33831;DHT22;20137;48.834;8.732;2023-10-09T13:46:12;22.90;76.30
33831;DHT22;20137;48.834;8.732;2023-10-09T13:48:41;23.10;76.20
33831;DHT22;20137;48.834;8.732;2023-10-09T13:51:12;23.30;75.10
33831;DHT22;20137;48.834;8.732;2023-10-09T13:53:47;23.40;73.90
33831;DHT22;20137;48.834;8.732;2023-10-09T13:56:20;23.70;75.00
33831;DHT22;20137;48.834;8.732;2023-10-09T13:58:51;23.70;74.60
33831;DHT22;20137;48.834;8.732;2023-10-09T14:01:20;23.90;76.10
33831;DHT22;20137;48.834;8.732;2023-10-09T14:03:56;24.00;76.10
33831;DHT22;20137;48.834;8.732;2023-10-09T14:06:26;24.00;74.20
33831;DHT22;20137;48.834;8.732;2023-10-09T14:08:59;24.10;73.90
33831;DHT22;20137;48.834;8.732;2023-10-09T14:11:27;24.30;71.60
33831;DHT22;20137;48.834;8.732;2023-10-09T14:13:53;24.30;70.30
33831;DHT22;20137;48.834;8.732;2023-10-09T14:16:19;24.30;69.00
33831;DHT22;20137;48.834;8.732;2023-10-09T14:18:56;24.30;69.40
33831;DHT22;20137;48.834;8.732;2023-10-09T14:21:32;24.20;69.00
33831;DHT22;20137;48.834;8.732;2023-10-09T14:24:01;24.20;70.70
33831;DHT22;20137;48.834;8.732;2023-10-09T14:26:27;24.20;71.40
33831;DHT22;20137;48.834;8.732;2023-10-09T14:28:54;24.30;72.60
33831;DHT22;20137;48.834;8.732;2023-10-09T14:31:23;24.30;72.30
33831;DHT22;20137;48.834;8.732;2023-10-09T14:33:56;24.20;70.80
33831;DHT22;20137;48.834;8.732;2023-10-09T14:36:23;24.20;71.00
33831;DHT22;20137;48.834;8.732;2023-10-09T14:38:52;24.20;71.50
33831;DHT22;20137;48.834;8.732;2023-10-09T14:41:22;24.20;72.10
33831;DHT22;20137;48.834;8.732;2023-10-09T14:43:51;24.20;71.50
33831;DHT22;20137;48.834;8.732;2023-10-09T14:46:18;24.00;71.20
33831;DHT22;20137;48.834;8.732;2023-10-09T14:48:51;23.90;72.60
33831;DHT22;20137;48.834;8.732;2023-10-09T14:51:21;23.80;72.20
33831;DHT22;20137;48.834;8.732;2023-10-09T14:53:54;23.90;73.60
33831;DHT22;20137;48.834;8.732;2023-10-09T14:56:24;23.90;73.10
33831;DHT22;20137;48.834;8.732;2023-10-09T14:58:55;24.00;73.20
33831;DHT22;20137;48.834;8.732;2023-10-09T15:01:21;24.00;73.40
33831;DHT22;20137;48.834;8.732;2023-10-09T15:03:50;23.90;74.00
33831;DHT22;20137;48.834;8.732;2023-10-09T15:06:18;23.90;74.70
33831;DHT22;20137;48.834;8.732;2023-10-09T15:08:44;23.80;73.70
33831;DHT22;20137;48.834;8.732;2023-10-09T15:11:12;23.80;73.90
33831;DHT22;20137;48.834;8.732;2023-10-09T15:13:38;23.70;74.00
33831;DHT22;20137;48.834;8.732;2023-10-09T15:16:05;23.60;74.70
33831;DHT22;20137;48.834;8.732;2023-10-09T15:18:30;23.50;74.60
33831;DHT22;20137;48.834;8.732;2023-10-09T15:20:58;23.40;75.90
33831;DHT22;20137;48.834;8.732;2023-10-09T15:23:25;23.30;75.30
33831;DHT22;20137;48.834;8.732;2023-10-09T15:25:51;23.20;75.40
33831;DHT22;20137;48.834;8.732;2023-10-09T15:28:22;23.10;76.40
33831;DHT22;20137;48.834;8.732;2023-10-09T15:30:48;23.10;77.00
33831;DHT22;20137;48.834;8.732;2023-10-09T15:33:17;23.00;77.10
33831;DHT22;20137;48.834;8.732;2023-10-09T15:35:44;23.00;77.60
33831;DHT22;20137;48.834;8.732;2023-10-09T15:38:15;22.90;76.70
33831;DHT22;20137;48.834;8.732;2023-10-09T15:40:45;22.90;76.80
33831;DHT22;20137;48.834;8.732;2023-10-09T15:43:13;22.70;77.10
33831;DHT22;20137;48.834;8.732;2023-10-09T15:45:43;22.70;77.70
33831;DHT22;20137;48.834;8.732;2023-10-09T15:48:15;22.60;78.20
33831;DHT22;20137;48.834;8.732;2023-10-09T15:50:45;22.50;78.10
33831;DHT22;20137;48.834;8.732;2023-10-09T15:53:15;22.60;78.60
33831;DHT22;20137;48.834;8.732;2023-10-09T15:55:43;22.50;78.40
33831;DHT22;20137;48.834;8.732;2023-10-09T15:58:09;22.50;77.70
33831;DHT22;20137;48.834;8.732;2023-10-09T16:00:35;22.50;79.10
33831;DHT22;20137;48.834;8.732;2023-10-09T16:03:03;22.30;79.50
33831;DHT22;20137;48.834;8.732;2023-10-09T16:05:29;22.20;79.60
33831;DHT22;20137;48.834;8.732;2023-10-09T16:07:58;22.20;79.80
33831;DHT22;20137;48.834;8.732;2023-10-09T16:10:25;22.10;79.30
33831;DHT22;20137;48.834;8.732;2023-10-09T16:12:51;22.10;79.60
33831;DHT22;20137;48.834;8.732;2023-10-09T16:15:17;22.00;79.40
33831;DHT22;20137;48.834;8.732;2023-10-09T16:17:46;21.90;79.10
33831;DHT22;20137;48.834;8.732;2023-10-09T16:20:13;21.70;79.80